Time;durP1;ratioP1;P1;durP2;ratioP2;P2;SDS_P1;SDS_P2;PMS_P1;PMS_P2;Temp;Humidity;BMP_temperature;BMP_pressure;BME280_temperature;BME280_humidity;BME280_pressure;Samples;Min_cycle;Max_cycle;Signal;HPM_P1;HPM_P2
2022/11/05 00:10:21;;;;;;;17.23;10.60;;;10.20;99.90;;;;;;5060972;28;20199;-71
2022/11/05 00:18:16;;;;;;;15.23;9.23;;;10.20;99.90;;;;;;5061565;28;20259;-71
2022/11/05 00:20:43;;;;;;;17.50;8.93;;;10.30;99.90;;;;;;5052862;28;20210;-71
2022/11/05 00:25:57;;;;;;;15.17;8.83;;;10.30;99.90;;;;;;5055061;28;20287;-72
2022/11/05 00:28:23;;;;;;;13.33;9.70;;;10.30;99.90;;;;;;5060565;28;20530;-71
2022/11/05 00:30:50;;;;;;;16.87;9.53;;;10.30;99.90;;;;;;5062306;28;20548;-72
2022/11/05 00:33:17;;;;;;;15.83;9.37;;;10.30;99.90;;;;;;5062917;28;20677;-71
2022/11/05 00:35:44;;;;;;;19.10;11.10;;;10.30;99.90;;;;;;5065586;28;20213;-71
2022/11/05 00:38:11;;;;;;;14.10;9.17;;;10.20;99.90;;;;;;5062888;28;20209;-70
2022/11/05 00:40:38;;;;;;;15.33;9.20;;;10.20;99.90;;;;;;5050292;28;20210;-72
2022/11/05 00:45:51;;;;;;;15.10;9.50;;;10.20;99.90;;;;;;5052647;28;20547;-71
2022/11/05 00:51:02;;;;;;;13.20;9.13;;;10.20;99.90;;;;;;5062151;28;20213;-71
2022/11/05 00:53:29;;;;;;;13.50;9.23;;;10.20;99.90;;;;;;5051999;28;20206;-69
2022/11/05 00:55:56;;;;;;;15.30;10.10;;;10.20;99.90;;;;;;5054202;28;20210;-70
2022/11/05 00:58:26;;;;;;;16.53;9.70;;;10.20;99.90;;;;;;5053924;28;20210;-70
2022/11/05 01:00:54;;;;;;;17.63;10.27;;;10.20;99.90;;;;;;5061294;28;21140;-70
2022/11/05 01:03:24;;;;;;;15.53;9.67;;;10.20;99.90;;;;;;5063862;28;20216;-70
2022/11/05 01:05:53;;;;;;;17.67;9.83;;;10.20;99.90;;;;;;5058257;28;20201;-71
2022/11/05 01:08:21;;;;;;;19.47;9.83;;;10.20;99.90;;;;;;5063160;28;20213;-71
2022/11/05 01:10:50;;;;;;;17.90;10.13;;;10.20;99.90;;;;;;5057894;28;20221;-69
2022/11/05 01:13:19;;;;;;;15.20;9.73;;;10.20;99.90;;;;;;5061050;28;20213;-70
2022/11/05 01:15:49;;;;;;;18.10;9.83;;;10.20;99.90;;;;;;5066175;28;20194;-71
2022/11/05 01:18:16;;;;;;;17.47;10.67;;;10.20;99.90;;;;;;5065012;28;20210;-70
2022/11/05 01:20:43;;;;;;;13.93;9.77;;;10.20;99.90;;;;;;5058516;28;20240;-70
2022/11/05 01:23:10;;;;;;;14.53;8.97;;;10.20;99.90;;;;;;5055690;28;20234;-71
2022/11/05 01:25:37;;;;;;;16.43;9.20;;;10.20;99.90;;;;;;5056704;28;20210;-71
2022/11/05 01:28:05;;;;;;;17.03;9.27;;;10.10;99.90;;;;;;5055914;28;20225;-70
2022/11/05 01:30:32;;;;;;;14.60;9.27;;;10.10;99.90;;;;;;5069815;28;20942;-70
2022/11/05 01:33:02;;;;;;;18.93;10.30;;;10.10;99.90;;;;;;5075559;28;20680;-70
2022/11/05 01:35:29;;;;;;;14.47;9.40;;;10.10;99.90;;;;;;5064683;28;20202;-70
2022/11/05 01:37:56;;;;;;;16.30;9.77;;;10.10;99.90;;;;;;5067972;28;20227;-71
2022/11/05 01:40:24;;;;;;;14.27;9.40;;;10.10;99.90;;;;;;5058973;28;20205;-70
2022/11/05 01:42:51;;;;;;;15.10;9.43;;;10.00;99.90;;;;;;5068183;28;20304;-70
2022/11/05 01:45:20;;;;;;;16.17;9.23;;;10.00;99.90;;;;;;5056267;28;20210;-70
2022/11/05 01:48:04;;;;;;;15.10;9.53;;;10.00;99.90;;;;;;5066973;28;20232;-69
2022/11/05 01:50:39;;;;;;;16.97;9.30;;;10.00;99.90;;;;;;5063052;28;20197;-70
2022/11/05 01:53:11;;;;;;;16.03;9.00;;;10.00;99.90;;;;;;5058868;28;20221;-71
2022/11/05 01:55:42;;;;;;;15.63;9.67;;;10.00;99.90;;;;;;5055027;28;20236;-70
2022/11/05 01:58:13;;;;;;;17.20;10.17;;;9.90;99.90;;;;;;5068407;28;20212;-70
2022/11/05 02:00:40;;;;;;;18.30;9.87;;;9.90;99.90;;;;;;5054959;28;20202;-70
2022/11/05 02:03:09;;;;;;;16.40;9.50;;;9.90;99.90;;;;;;5059852;28;20206;-71
2022/11/05 02:05:36;;;;;;;16.30;10.17;;;9.90;99.90;;;;;;5056702;28;20216;-70
2022/11/05 02:08:04;;;;;;;14.77;9.93;;;9.90;99.90;;;;;;5055295;28;20206;-70
2022/11/05 02:10:31;;;;;;;14.83;9.03;;;9.90;99.90;;;;;;5062589;28;20764;-70
2022/11/05 02:12:59;;;;;;;18.23;10.37;;;9.90;99.90;;;;;;5054568;28;20228;-71
2022/11/05 02:15:34;;;;;;;11.77;8.73;;;9.90;99.90;;;;;;5055071;28;20202;-71
2022/11/05 02:18:19;;;;;;;14.20;9.13;;;9.90;99.90;;;;;;5062107;28;20219;-71
2022/11/05 02:20:53;;;;;;;16.57;10.03;;;9.90;99.90;;;;;;5054942;28;20201;-69
2022/11/05 02:23:57;;;;;;;13.47;9.20;;;9.90;99.90;;;;;;5054495;28;20229;-70
2022/11/05 02:26:54;;;;;;;16.50;9.57;;;9.90;99.90;;;;;;5060122;28;20574;-69
2022/11/05 02:30:01;;;;;;;15.07;9.40;;;9.90;99.90;;;;;;5064281;28;20576;-69
2022/11/05 02:32:48;;;;;;;14.57;9.70;;;9.80;99.90;;;;;;5060062;28;20213;-69
2022/11/05 02:35:25;;;;;;;12.70;9.07;;;9.80;99.90;;;;;;5063260;28;20229;-71
2022/11/05 02:37:54;;;;;;;16.90;10.37;;;9.80;99.90;;;;;;5057059;28;20201;-69
2022/11/05 02:40:28;;;;;;;14.57;10.47;;;9.80;99.90;;;;;;5054458;28;20673;-69
2022/11/05 02:43:03;;;;;;;16.13;9.83;;;9.80;99.90;;;;;;5058539;28;20233;-70
2022/11/05 02:45:40;;;;;;;16.63;9.43;;;9.80;99.90;;;;;;5053100;28;20202;-70
2022/11/05 02:48:16;;;;;;;18.53;10.40;;;9.80;99.90;;;;;;5057737;28;20205;-70
2022/11/05 02:50:51;;;;;;;16.33;9.87;;;9.80;99.90;;;;;;5053480;28;20205;-70
2022/11/05 02:53:24;;;;;;;17.47;10.10;;;9.70;99.90;;;;;;5055411;28;20220;-71
2022/11/05 02:55:58;;;;;;;16.90;10.27;;;9.70;99.90;;;;;;5063639;28;20243;-71
2022/11/05 02:58:27;;;;;;;19.50;10.33;;;9.70;99.90;;;;;;5065791;28;20206;-69
2022/11/05 03:00:54;;;;;;;16.07;10.07;;;9.70;99.90;;;;;;5054972;28;20285;-69
2022/11/05 03:03:27;;;;;;;17.07;10.57;;;9.70;99.90;;;;;;5059327;28;20212;-69
2022/11/05 03:06:17;;;;;;;13.50;9.40;;;9.70;99.90;;;;;;5056956;28;20205;-68
2022/11/05 03:09:08;;;;;;;16.17;10.40;;;9.60;99.90;;;;;;5054758;28;20551;-70
2022/11/05 03:11:46;;;;;;;16.17;10.00;;;9.70;99.90;;;;;;5057122;28;20654;-70
2022/11/05 03:14:22;;;;;;;15.80;10.67;;;9.70;99.90;;;;;;5074377;28;20205;-69
2022/11/05 03:16:55;;;;;;;15.20;10.00;;;9.60;99.90;;;;;;5071645;28;20220;-70
2022/11/05 03:19:34;;;;;;;14.13;9.70;;;9.60;99.90;;;;;;5054391;28;20229;-70
2022/11/05 03:22:05;;;;;;;19.50;11.00;;;9.60;99.90;;;;;;5073220;28;20193;-70
2022/11/05 03:24:35;;;;;;;19.70;10.63;;;9.60;99.90;;;;;;5069838;28;20201;-70
2022/11/05 03:27:05;;;;;;;14.80;10.03;;;9.60;99.90;;;;;;5071979;28;20221;-70
2022/11/05 03:29:36;;;;;;;18.77;11.40;;;9.60;99.90;;;;;;5065171;28;20255;-70
2022/11/05 03:32:06;;;;;;;20.63;10.87;;;9.60;99.90;;;;;;5054045;28;20216;-69
2022/11/05 03:34:39;;;;;;;16.43;10.27;;;9.60;99.90;;;;;;5054367;28;20221;-69
2022/11/05 03:37:08;;;;;;;21.37;10.63;;;9.60;99.90;;;;;;5053619;28;20254;-69
2022/11/05 03:39:38;;;;;;;24.10;11.37;;;9.60;99.90;;;;;;5065136;28;20205;-70
2022/11/05 03:42:08;;;;;;;14.80;10.30;;;9.60;99.90;;;;;;5063262;28;20241;-70
2022/11/05 03:44:38;;;;;;;15.87;11.47;;;9.60;99.90;;;;;;5057503;28;20214;-70
2022/11/05 03:47:09;;;;;;;15.47;10.43;;;9.60;99.90;;;;;;5061786;28;20206;-70
2022/11/05 03:49:40;;;;;;;16.40;9.90;;;9.60;99.90;;;;;;5060287;28;20205;-70
2022/11/05 03:52:11;;;;;;;18.13;11.17;;;9.60;99.90;;;;;;5053380;28;20209;-70
2022/11/05 03:54:38;;;;;;;16.60;10.50;;;9.60;99.90;;;;;;5064555;28;20208;-70
2022/11/05 03:57:08;;;;;;;17.80;10.23;;;9.50;99.90;;;;;;5053938;28;20221;-69
2022/11/05 03:59:41;;;;;;;18.77;11.17;;;9.50;99.90;;;;;;5067149;28;20220;-70
2022/11/05 04:02:09;;;;;;;17.13;10.80;;;9.50;99.90;;;;;;5056042;28;20210;-70
2022/11/05 04:04:37;;;;;;;17.27;11.37;;;9.40;99.90;;;;;;5057701;28;20204;-70
2022/11/05 04:15:16;;;;;;;18.50;11.53;;;9.40;99.90;;;;;;5056965;28;20222;-70
2022/11/05 04:17:42;;;;;;;16.27;11.27;;;9.40;99.90;;;;;;5068201;28;20239;-70
2022/11/05 04:25:44;;;;;;;15.87;10.53;;;9.30;99.90;;;;;;5066726;28;20212;-69
2022/11/05 04:28:11;;;;;;;17.53;10.87;;;9.30;99.90;;;;;;5060588;28;20212;-70
2022/11/05 04:30:38;;;;;;;19.23;11.07;;;9.30;99.90;;;;;;5072303;28;20205;-71
2022/11/05 04:33:06;;;;;;;19.07;11.03;;;9.30;99.90;;;;;;5069344;28;20217;-70
2022/11/05 04:35:36;;;;;;;17.80;11.57;;;9.30;99.90;;;;;;5062415;28;20642;-70
2022/11/05 04:38:04;;;;;;;18.87;11.63;;;9.30;99.90;;;;;;5072511;28;20224;-70
2022/11/05 04:40:31;;;;;;;20.20;11.30;;;9.20;99.90;;;;;;5064226;28;20620;-69
2022/11/05 04:42:58;;;;;;;16.07;10.77;;;9.20;99.90;;;;;;5056923;28;20226;-70
2022/11/05 04:45:26;;;;;;;19.73;11.63;;;9.20;99.90;;;;;;5060315;28;20249;-69
2022/11/05 04:47:54;;;;;;;17.70;12.47;;;9.20;99.90;;;;;;5071515;28;20254;-70
2022/11/05 04:50:20;;;;;;;19.33;11.43;;;9.20;99.90;;;;;;5057821;28;20213;-70
2022/11/05 04:52:49;;;;;;;19.30;11.40;;;9.10;99.90;;;;;;5057341;28;20222;-71
2022/11/05 04:55:16;;;;;;;17.63;11.07;;;9.10;99.90;;;;;;5066162;28;20209;-70
2022/11/05 04:57:43;;;;;;;16.20;11.57;;;9.10;99.90;;;;;;5059046;28;20740;-70
2022/11/05 05:00:10;;;;;;;17.57;11.87;;;9.10;99.90;;;;;;5067474;28;20280;-70
2022/11/05 05:02:37;;;;;;;16.70;12.10;;;9.10;99.90;;;;;;5056457;28;20198;-70
2022/11/05 05:05:06;;;;;;;19.10;11.70;;;9.10;99.90;;;;;;5071203;28;20206;-70
2022/11/05 05:07:33;;;;;;;17.73;11.60;;;9.00;99.90;;;;;;5055710;28;20202;-70
2022/11/05 05:10:02;;;;;;;18.20;11.73;;;9.00;99.90;;;;;;5053904;28;20210;-71
2022/11/05 05:12:29;;;;;;;17.03;11.17;;;9.10;99.90;;;;;;5059485;28;20242;-69
2022/11/05 05:14:55;;;;;;;22.37;12.53;;;9.00;99.90;;;;;;5059982;28;20577;-69
2022/11/05 05:17:23;;;;;;;19.00;12.07;;;9.00;99.90;;;;;;5070629;28;20235;-70
2022/11/05 05:22:34;;;;;;;18.03;12.33;;;9.00;99.90;;;;;;5073181;28;20803;-69
2022/11/05 05:25:02;;;;;;;20.63;12.37;;;9.00;99.90;;;;;;5067495;28;20213;-70
2022/11/05 05:27:29;;;;;;;19.50;12.47;;;9.00;99.90;;;;;;5056409;28;20206;-70
2022/11/05 05:29:56;;;;;;;16.13;12.50;;;8.90;99.90;;;;;;5063434;28;20213;-70
2022/11/05 05:32:24;;;;;;;18.90;12.43;;;8.90;99.90;;;;;;5056678;28;20232;-70
2022/11/05 05:34:51;;;;;;;16.77;12.07;;;8.90;99.90;;;;;;5060733;28;20213;-70
2022/11/05 05:37:19;;;;;;;21.50;12.53;;;8.90;99.90;;;;;;5063143;28;20687;-69
2022/11/05 05:39:46;;;;;;;22.50;13.13;;;8.90;99.90;;;;;;5061278;28;20201;-69
2022/11/05 05:42:15;;;;;;;21.03;12.47;;;8.90;99.90;;;;;;5066634;28;20328;-70
2022/11/05 05:44:42;;;;;;;18.93;12.80;;;8.80;99.90;;;;;;5058812;28;20204;-70
2022/11/05 05:47:08;;;;;;;20.17;13.37;;;8.80;99.90;;;;;;5058646;28;20213;-69
2022/11/05 05:49:35;;;;;;;21.53;12.83;;;8.70;99.90;;;;;;5065600;28;20220;-68
2022/11/05 05:52:02;;;;;;;20.83;12.87;;;8.70;99.90;;;;;;5067332;28;20217;-68
2022/11/05 05:54:29;;;;;;;19.23;13.03;;;8.70;99.90;;;;;;5054019;28;20601;-68
2022/11/05 05:56:56;;;;;;;22.03;12.50;;;8.60;99.90;;;;;;5062873;28;20208;-68
2022/11/05 05:59:24;;;;;;;20.73;13.47;;;8.60;99.90;;;;;;5063493;28;20225;-68
2022/11/05 06:01:51;;;;;;;21.07;13.53;;;8.60;99.90;;;;;;5059089;28;20206;-67
2022/11/05 06:04:18;;;;;;;22.80;13.60;;;8.50;99.90;;;;;;5053269;28;20210;-69
2022/11/05 06:06:45;;;;;;;20.33;13.00;;;8.60;99.90;;;;;;5072201;28;20315;-69
2022/11/05 06:09:12;;;;;;;20.17;13.80;;;8.50;99.90;;;;;;5067029;28;20209;-68
2022/11/05 06:11:39;;;;;;;20.33;13.77;;;8.50;99.90;;;;;;5058637;28;20224;-68
2022/11/05 06:14:06;;;;;;;21.13;13.23;;;8.50;99.90;;;;;;5053388;28;20317;-68
2022/11/05 06:16:35;;;;;;;27.13;14.33;;;8.50;99.90;;;;;;5057936;28;20577;-68
2022/11/05 06:19:01;;;;;;;21.63;14.00;;;8.50;99.90;;;;;;5064459;28;20205;-71
2022/11/05 06:21:28;;;;;;;18.27;12.43;;;8.50;99.90;;;;;;5072432;28;20209;-68
2022/11/05 06:23:55;;;;;;;21.47;13.77;;;8.60;99.90;;;;;;5068445;28;20228;-69
2022/11/05 06:26:22;;;;;;;21.77;13.40;;;8.50;99.90;;;;;;5062409;28;20213;-67
2022/11/05 06:28:49;;;;;;;19.07;12.73;;;8.50;99.90;;;;;;5069357;28;20216;-69
2022/11/05 06:31:15;;;;;;;18.63;13.47;;;8.50;99.90;;;;;;5061752;28;20277;-68
2022/11/05 06:33:43;;;;;;;19.80;13.03;;;8.50;99.90;;;;;;5067058;28;20674;-70
2022/11/05 06:36:15;;;;;;;22.63;13.83;;;8.40;99.90;;;;;;5069559;28;20545;-69
2022/11/05 06:38:41;;;;;;;21.87;13.37;;;8.50;99.90;;;;;;5060847;28;20537;-69
2022/11/05 06:41:08;;;;;;;22.10;12.90;;;8.60;99.90;;;;;;5063998;28;20209;-66
2022/11/05 06:43:35;;;;;;;23.43;13.30;;;8.60;99.90;;;;;;5067363;28;20229;-68
2022/11/05 06:46:02;;;;;;;21.90;13.17;;;8.60;99.90;;;;;;5070661;28;20216;-69
2022/11/05 06:48:29;;;;;;;19.63;12.57;;;8.60;99.90;;;;;;5063811;28;20201;-68
2022/11/05 06:50:58;;;;;;;20.40;12.90;;;8.60;99.90;;;;;;5066434;28;20205;-67
2022/11/05 06:53:25;;;;;;;19.47;12.30;;;8.60;99.90;;;;;;5062059;28;20681;-73
2022/11/05 06:55:52;;;;;;;21.10;13.77;;;8.70;99.90;;;;;;5061262;28;20688;-70
2022/11/05 06:58:19;;;;;;;18.37;12.93;;;8.70;99.90;;;;;;5058984;28;20205;-68
2022/11/05 07:00:46;;;;;;;20.40;13.17;;;8.70;99.90;;;;;;5061644;28;20214;-70
2022/11/05 07:03:13;;;;;;;20.30;12.90;;;8.70;99.90;;;;;;5072866;28;20552;-69
2022/11/05 07:05:43;;;;;;;21.13;13.73;;;8.80;99.90;;;;;;5068597;28;20227;-70
2022/11/05 07:08:12;;;;;;;22.07;13.17;;;8.70;99.90;;;;;;5059025;28;20213;-70
2022/11/05 07:10:38;;;;;;;19.97;12.73;;;8.80;99.90;;;;;;5059429;28;20485;-71
2022/11/05 07:13:05;;;;;;;20.70;12.63;;;8.80;99.90;;;;;;5066849;28;20220;-69
2022/11/05 07:15:32;;;;;;;21.37;13.40;;;8.80;99.90;;;;;;5071005;28;20216;-65
2022/11/05 07:18:00;;;;;;;26.80;12.67;;;8.90;99.90;;;;;;5054588;28;20203;-69
2022/11/05 07:20:27;;;;;;;22.30;12.40;;;8.90;99.90;;;;;;5062112;28;20210;-70
2022/11/05 07:23:01;;;;;;;21.67;13.07;;;8.90;99.90;;;;;;5056880;28;20273;-70
2022/11/05 07:25:30;;;;;;;22.57;13.30;;;8.90;99.90;;;;;;5060776;28;20250;-75
2022/11/05 07:27:57;;;;;;;25.40;12.83;;;8.90;99.90;;;;;;5055807;28;20220;-67
2022/11/05 07:30:24;;;;;;;21.53;13.40;;;8.90;99.90;;;;;;5061023;28;20205;-68
2022/11/05 07:32:51;;;;;;;18.67;12.50;;;8.90;99.90;;;;;;5073229;28;20256;-71
2022/11/05 07:35:18;;;;;;;20.17;12.80;;;8.90;99.90;;;;;;5058665;28;20292;-74
2022/11/05 07:37:46;;;;;;;22.57;13.67;;;8.90;99.90;;;;;;5068790;28;20310;-72
2022/11/05 07:40:14;;;;;;;20.30;12.97;;;8.90;99.90;;;;;;5058969;28;20209;-76
2022/11/05 07:42:44;;;;;;;21.60;12.77;;;8.90;99.90;;;;;;5066348;28;20229;-70
2022/11/05 07:45:11;;;;;;;21.03;13.60;;;8.90;99.90;;;;;;5053025;28;20568;-68
2022/11/05 07:47:39;;;;;;;19.23;12.60;;;8.90;99.90;;;;;;5059248;28;20748;-69
2022/11/05 07:50:07;;;;;;;20.00;12.87;;;8.90;99.90;;;;;;5053819;28;20202;-69
2022/11/05 07:52:33;;;;;;;19.70;13.20;;;9.00;99.90;;;;;;5055049;28;20233;-69
2022/11/05 07:55:00;;;;;;;23.63;14.00;;;9.00;99.90;;;;;;5069951;28;20639;-69
2022/11/05 07:57:27;;;;;;;18.37;12.57;;;9.10;99.90;;;;;;5062332;28;20209;-68
2022/11/05 07:59:55;;;;;;;19.63;12.67;;;9.10;99.90;;;;;;5054623;28;20210;-70
2022/11/05 08:02:22;;;;;;;22.57;13.87;;;9.10;99.90;;;;;;5056959;28;20213;-72
2022/11/05 08:04:49;;;;;;;22.90;12.67;;;9.10;99.90;;;;;;5060173;28;20208;-71
2022/11/05 08:07:16;;;;;;;18.60;12.37;;;9.10;99.90;;;;;;5063690;28;20205;-70
2022/11/05 08:09:43;;;;;;;17.77;12.27;;;9.10;99.90;;;;;;5066254;28;20202;-69
2022/11/05 08:12:09;;;;;;;22.80;13.87;;;9.20;99.90;;;;;;5062852;28;20282;-70
2022/11/05 08:14:36;;;;;;;20.13;13.27;;;9.20;99.90;;;;;;5067551;28;20213;-68
2022/11/05 08:17:04;;;;;;;21.60;13.17;;;9.20;99.90;;;;;;5057362;28;20201;-69
2022/11/05 08:19:31;;;;;;;19.47;13.13;;;9.20;99.90;;;;;;5060260;28;20544;-70
2022/11/05 08:21:58;;;;;;;20.83;12.97;;;9.20;99.90;;;;;;5053003;28;20206;-71
2022/11/05 08:24:24;;;;;;;20.07;14.23;;;9.30;99.90;;;;;;5062348;28;20201;-72
2022/11/05 08:26:52;;;;;;;20.57;13.10;;;9.30;99.90;;;;;;5057660;28;20206;-70
2022/11/05 08:29:19;;;;;;;21.33;13.53;;;9.30;99.90;;;;;;5066420;28;20210;-69
2022/11/05 08:31:46;;;;;;;21.37;13.33;;;9.40;99.90;;;;;;5055812;28;20213;-70
2022/11/05 08:34:14;;;;;;;19.07;12.87;;;9.40;99.90;;;;;;5066549;28;20217;-70
2022/11/05 08:36:45;;;;;;;21.87;13.73;;;9.50;99.90;;;;;;5066079;28;20225;-71
2022/11/05 08:39:12;;;;;;;19.43;13.17;;;9.50;99.90;;;;;;5061323;28;20274;-71
2022/11/05 08:41:39;;;;;;;19.10;13.13;;;9.50;99.90;;;;;;5072022;28;20268;-72
2022/11/05 08:44:07;;;;;;;21.30;13.27;;;9.50;99.90;;;;;;5057274;28;20329;-69
2022/11/05 08:46:34;;;;;;;20.23;12.90;;;9.60;99.90;;;;;;5063419;28;20216;-70
2022/11/05 08:49:01;;;;;;;29.00;14.03;;;9.60;99.90;;;;;;5063278;28;20557;-70
2022/11/05 08:51:29;;;;;;;19.07;13.63;;;9.60;99.90;;;;;;5073379;28;20208;-70
2022/11/05 08:53:56;;;;;;;25.07;14.70;;;9.60;99.90;;;;;;5057306;28;20592;-70
2022/11/05 08:56:23;;;;;;;19.60;13.30;;;9.70;99.90;;;;;;5061312;28;20713;-70
2022/11/05 08:58:50;;;;;;;20.43;13.70;;;9.60;99.90;;;;;;5075850;28;20209;-70
2022/11/05 09:01:16;;;;;;;22.00;14.63;;;9.60;99.90;;;;;;5074239;28;20209;-70
2022/11/05 09:03:43;;;;;;;20.90;14.03;;;9.70;99.90;;;;;;5058535;28;20210;-70
2022/11/05 09:06:10;;;;;;;24.07;13.87;;;9.70;99.90;;;;;;5063507;28;20213;-69
2022/11/05 09:08:38;;;;;;;20.00;13.43;;;9.70;99.90;;;;;;5071660;28;20213;-70
2022/11/05 09:11:05;;;;;;;22.03;13.53;;;9.70;99.90;;;;;;5075329;28;20561;-70
2022/11/05 09:13:32;;;;;;;25.10;14.70;;;9.70;99.90;;;;;;5066068;28;20236;-71
2022/11/05 09:15:59;;;;;;;21.87;14.57;;;9.70;99.90;;;;;;5054132;28;20293;-71
2022/11/05 09:18:26;;;;;;;21.17;14.23;;;9.70;99.90;;;;;;5066769;28;20274;-70
2022/11/05 09:20:53;;;;;;;24.90;15.03;;;9.70;99.90;;;;;;5060009;28;20206;-70
2022/11/05 09:23:19;;;;;;;21.83;15.27;;;9.70;99.90;;;;;;5065480;28;20233;-70
2022/11/05 09:25:48;;;;;;;26.27;15.07;;;9.70;99.90;;;;;;5054441;28;20214;-69
2022/11/05 09:28:16;;;;;;;22.17;15.07;;;9.80;99.90;;;;;;5052296;28;20209;-70
2022/11/05 09:30:45;;;;;;;21.10;14.97;;;9.80;99.90;;;;;;5071076;28;20220;-70
2022/11/05 09:33:13;;;;;;;22.37;14.50;;;9.80;99.90;;;;;;5061836;28;20213;-70
2022/11/05 09:35:40;;;;;;;22.10;15.03;;;9.80;99.90;;;;;;5075760;28;20212;-70
2022/11/05 09:38:07;;;;;;;23.93;14.97;;;9.80;99.90;;;;;;5054618;28;20213;-71
2022/11/05 09:40:39;;;;;;;21.73;15.90;;;9.80;99.90;;;;;;5054134;28;20685;-72
2022/11/05 09:43:07;;;;;;;24.77;15.53;;;9.80;99.90;;;;;;5053676;28;20230;-71
2022/11/05 09:45:36;;;;;;;24.37;15.73;;;9.90;99.90;;;;;;5053993;28;20655;-71
2022/11/05 09:48:10;;;;;;;28.50;15.90;;;9.90;99.90;;;;;;5053471;28;20205;-70
2022/11/05 09:50:40;;;;;;;23.07;15.60;;;9.90;99.90;;;;;;5052745;28;20198;-71
2022/11/05 09:53:10;;;;;;;23.80;14.97;;;9.90;99.90;;;;;;5056160;28;20205;-69
2022/11/05 09:55:39;;;;;;;28.30;15.73;;;10.00;99.90;;;;;;5064623;28;20206;-71
2022/11/05 09:58:15;;;;;;;24.20;15.07;;;10.00;99.90;;;;;;5055662;28;20204;-71
2022/11/05 10:00:42;;;;;;;22.43;15.13;;;10.00;99.90;;;;;;5055186;28;20197;-70
2022/11/05 10:03:13;;;;;;;21.93;15.47;;;10.00;99.90;;;;;;5056114;28;20213;-71
2022/11/05 10:05:40;;;;;;;20.57;14.60;;;10.10;99.90;;;;;;5058277;28;20397;-71
2022/11/05 10:08:15;;;;;;;22.43;15.40;;;10.10;99.90;;;;;;5071724;28;20572;-71
2022/11/05 10:10:45;;;;;;;25.30;15.97;;;10.20;99.90;;;;;;5067208;28;20212;-71
2022/11/05 10:13:21;;;;;;;24.47;15.80;;;10.20;99.90;;;;;;5054702;28;20663;-71
2022/11/05 10:15:55;;;;;;;25.33;15.73;;;10.20;99.90;;;;;;5056653;28;20246;-70
2022/11/05 10:18:27;;;;;;;25.47;15.50;;;10.30;99.90;;;;;;5062558;28;20216;-71
2022/11/05 10:20:53;;;;;;;22.63;15.70;;;10.30;99.90;;;;;;5054512;28;20213;-69
2022/11/05 10:23:22;;;;;;;23.57;15.70;;;10.30;99.90;;;;;;5056383;28;20233;-70
2022/11/05 10:25:52;;;;;;;25.47;15.80;;;10.40;99.90;;;;;;5060570;28;20664;-70
2022/11/05 10:28:23;;;;;;;23.63;15.80;;;10.40;99.90;;;;;;5063013;28;20205;-69
2022/11/05 10:30:52;;;;;;;27.13;16.23;;;10.40;99.90;;;;;;5059215;28;20484;-70
2022/11/05 10:33:29;;;;;;;28.10;16.50;;;10.40;99.90;;;;;;5064956;28;20198;-69
2022/11/05 10:36:02;;;;;;;23.13;16.00;;;10.50;99.90;;;;;;5054988;28;20201;-71
2022/11/05 10:38:29;;;;;;;22.57;16.00;;;10.50;99.90;;;;;;5062644;28;20415;-70
2022/11/05 10:41:11;;;;;;;26.83;15.83;;;10.50;99.90;;;;;;5055430;28;20659;-70
2022/11/05 10:43:44;;;;;;;26.20;16.50;;;10.50;99.90;;;;;;5055692;28;20237;-70
2022/11/05 10:46:25;;;;;;;27.20;16.90;;;10.50;99.90;;;;;;5067202;28;20201;-70
2022/11/05 10:49:03;;;;;;;23.97;16.90;;;10.60;99.90;;;;;;5054848;28;20204;-69
2022/11/05 10:51:32;;;;;;;24.73;16.20;;;10.60;99.90;;;;;;5053663;28;20198;-70
2022/11/05 10:54:05;;;;;;;26.57;16.57;;;10.60;99.90;;;;;;5053540;28;20230;-71
2022/11/05 10:56:35;;;;;;;27.73;17.53;;;10.70;99.90;;;;;;5053981;28;20202;-69
2022/11/05 10:59:06;;;;;;;30.53;18.70;;;10.60;99.90;;;;;;5053380;28;20213;-70
2022/11/05 11:01:33;;;;;;;27.53;18.10;;;10.60;99.90;;;;;;5059698;28;20221;-71
2022/11/05 11:04:20;;;;;;;28.83;18.47;;;10.60;99.90;;;;;;5056253;28;20201;-70
2022/11/05 11:06:52;;;;;;;25.83;17.30;;;10.70;99.90;;;;;;5054350;28;20681;-71
2022/11/05 11:09:23;;;;;;;29.83;17.10;;;10.70;99.90;;;;;;5056759;28;20596;-70
2022/11/05 11:11:58;;;;;;;26.80;17.20;;;10.80;99.90;;;;;;5072404;28;20748;-69
2022/11/05 11:14:27;;;;;;;25.57;17.40;;;10.70;99.90;;;;;;5058045;28;20217;-70
2022/11/05 11:16:56;;;;;;;31.30;18.47;;;10.80;99.90;;;;;;5054037;28;20217;-71
2022/11/05 11:19:30;;;;;;;30.57;18.13;;;10.80;99.90;;;;;;5052730;28;20202;-70
2022/11/05 11:22:13;;;;;;;25.60;16.80;;;10.80;99.90;;;;;;5053296;28;20724;-70
2022/11/05 11:24:42;;;;;;;31.33;17.30;;;10.80;99.90;;;;;;5055095;28;20201;-70
2022/11/05 11:27:12;;;;;;;25.67;17.73;;;10.70;99.90;;;;;;5059461;28;20206;-71
2022/11/05 11:29:43;;;;;;;24.97;17.63;;;10.80;99.90;;;;;;5053800;28;20217;-70
2022/11/05 11:32:14;;;;;;;27.73;17.50;;;10.70;99.90;;;;;;5065563;28;20201;-70
2022/11/05 11:34:44;;;;;;;25.97;17.33;;;10.70;99.90;;;;;;5062534;28;20641;-70
2022/11/05 11:37:15;;;;;;;28.87;17.93;;;10.70;99.90;;;;;;5061119;28;20216;-70
2022/11/05 11:39:47;;;;;;;27.23;17.87;;;10.70;99.90;;;;;;5054144;28;20587;-70
2022/11/05 11:42:21;;;;;;;27.53;17.47;;;10.70;99.90;;;;;;5052721;28;20259;-69
2022/11/05 11:44:50;;;;;;;31.03;18.13;;;10.70;99.90;;;;;;5051058;28;20205;-69
2022/11/05 11:47:19;;;;;;;26.30;17.10;;;10.70;99.90;;;;;;5055744;28;20216;-68
2022/11/05 11:49:50;;;;;;;24.40;18.20;;;10.70;99.90;;;;;;5057781;28;20251;-67
2022/11/05 11:52:24;;;;;;;30.47;18.93;;;10.60;99.90;;;;;;5066059;28;20210;-69
2022/11/05 11:54:51;;;;;;;28.33;18.53;;;10.70;99.90;;;;;;5054666;28;20627;-68
2022/11/05 11:57:21;;;;;;;28.60;18.43;;;10.60;99.90;;;;;;5058037;28;20217;-69
2022/11/05 11:59:50;;;;;;;32.30;19.13;;;10.70;99.90;;;;;;5051760;28;20210;-69
2022/11/05 12:02:45;;;;;;;33.07;20.00;;;10.70;99.90;;;;;;5049287;28;20412;-68
2022/11/05 12:05:43;;;;;;;30.47;18.53;;;10.70;99.90;;;;;;5055831;28;20231;-67
2022/11/05 12:08:31;;;;;;;30.67;19.50;;;10.70;99.90;;;;;;5052008;28;20652;-67
2022/11/05 12:11:04;;;;;;;30.90;19.47;;;10.70;99.90;;;;;;5051302;28;20201;-68
2022/11/05 12:13:55;;;;;;;33.23;20.07;;;10.70;99.90;;;;;;5056586;28;20202;-67
2022/11/05 12:16:58;;;;;;;31.17;19.33;;;10.70;99.90;;;;;;5056609;28;20198;-68
2022/11/05 12:19:36;;;;;;;30.67;18.77;;;10.70;99.90;;;;;;5061297;28;20212;-69
2022/11/05 12:22:09;;;;;;;28.77;18.57;;;10.70;99.90;;;;;;5050640;28;20206;-68
2022/11/05 12:24:55;;;;;;;28.23;18.93;;;10.70;99.90;;;;;;5055570;28;20195;-69
2022/11/05 12:27:31;;;;;;;28.67;19.10;;;10.60;99.90;;;;;;5051949;28;20204;-69
2022/11/05 12:30:05;;;;;;;29.67;18.67;;;10.60;99.90;;;;;;5062016;28;20577;-68
2022/11/05 12:33:17;;;;;;;28.87;19.90;;;10.60;99.90;;;;;;5060421;28;20629;-68
2022/11/05 12:35:56;;;;;;;30.77;21.27;;;10.60;99.90;;;;;;5034761;28;20234;-67
2022/11/05 12:38:40;;;;;;;30.73;19.97;;;10.70;99.90;;;;;;5059947;28;20193;-67
2022/11/05 12:41:18;;;;;;;30.70;20.23;;;10.70;99.90;;;;;;5066383;28;20205;-68
2022/11/05 12:43:58;;;;;;;25.93;18.53;;;10.70;99.90;;;;;;5051585;28;20733;-68
2022/11/05 12:46:33;;;;;;;27.90;19.43;;;10.70;99.90;;;;;;5065083;28;20217;-70
2022/11/05 12:49:21;;;;;;;31.77;19.37;;;10.70;99.90;;;;;;5050405;28;20589;-70
2022/11/05 12:52:01;;;;;;;33.13;19.33;;;10.80;99.90;;;;;;5049814;28;20225;-69
2022/11/05 12:54:42;;;;;;;29.17;19.03;;;10.80;99.90;;;;;;5051393;28;20232;-68
2022/11/05 12:57:12;;;;;;;32.67;20.73;;;10.80;99.90;;;;;;5052683;28;20208;-69
2022/11/05 12:59:45;;;;;;;31.17;20.40;;;10.80;99.90;;;;;;5063209;28;20575;-68
2022/11/05 13:02:20;;;;;;;30.87;19.70;;;10.80;99.90;;;;;;5051493;28;20198;-74
2022/11/05 13:04:53;;;;;;;32.70;20.63;;;10.80;99.90;;;;;;5064057;28;20921;-67
2022/11/05 13:07:25;;;;;;;29.17;20.20;;;10.80;99.90;;;;;;5066301;28;20210;-69
2022/11/05 13:09:57;;;;;;;29.30;19.60;;;10.70;99.90;;;;;;5060118;28;20220;-69
2022/11/05 13:12:27;;;;;;;31.23;20.33;;;10.70;99.90;;;;;;5059884;28;20198;-68
2022/11/05 13:14:57;;;;;;;33.33;21.97;;;10.70;99.90;;;;;;5054410;28;20214;-68
2022/11/05 13:17:29;;;;;;;36.47;22.20;;;10.80;99.90;;;;;;5065347;28;20248;-69
2022/11/05 13:20:03;;;;;;;39.60;23.80;;;10.70;99.90;;;;;;5054991;28;20237;-72
2022/11/05 13:22:36;;;;;;;32.87;21.33;;;10.70;99.90;;;;;;5065168;28;20227;-69
2022/11/05 13:25:10;;;;;;;30.97;20.23;;;10.70;99.90;;;;;;5062959;28;20566;-69
2022/11/05 13:27:47;;;;;;;29.77;21.20;;;10.70;99.90;;;;;;5052243;28;20210;-69
2022/11/05 13:30:17;;;;;;;35.10;21.77;;;10.70;99.90;;;;;;5058717;28;20656;-67